sensor_id;sensor_type;location;lat;lon;timestamp;P1;durP1;ratioP1;P2;durP2;ratioP2
23390;SDS011;11868;45.606;5.302;2023-05-10T00:01:22;0.75;;;0.68;;
23390;SDS011;11868;45.606;5.302;2023-05-10T00:03:47;2.45;;;0.90;;
23390;SDS011;11868;45.606;5.302;2023-05-10T00:06:13;1.48;;;0.80;;
23390;SDS011;11868;45.606;5.302;2023-05-10T00:08:38;4.93;;;1.00;;
23390;SDS011;11868;45.606;5.302;2023-05-10T00:11:03;4.20;;;0.70;;
23390;SDS011;11868;45.606;5.302;2023-05-10T00:13:29;3.38;;;1.10;;
23390;SDS011;11868;45.606;5.302;2023-05-10T00:15:54;1.63;;;0.90;;
23390;SDS011;11868;45.606;5.302;2023-05-10T00:18:19;4.68;;;0.90;;
23390;SDS011;11868;45.606;5.302;2023-05-10T00:20:45;3.50;;;0.90;;
23390;SDS011;11868;45.606;5.302;2023-05-10T00:23:11;0.60;;;0.60;;
23390;SDS011;11868;45.606;5.302;2023-05-10T00:25:36;5.22;;;1.05;;
23390;SDS011;11868;45.606;5.302;2023-05-10T00:28:02;3.75;;;0.90;;
23390;SDS011;11868;45.606;5.302;2023-05-10T00:30:27;1.80;;;0.80;;
23390;SDS011;11868;45.606;5.302;2023-05-10T00:32:53;2.78;;;1.23;;
23390;SDS011;11868;45.606;5.302;2023-05-10T00:35:18;2.80;;;1.20;;
23390;SDS011;11868;45.606;5.302;2023-05-10T00:37:44;1.35;;;0.80;;
23390;SDS011;11868;45.606;5.302;2023-05-10T00:40:09;1.75;;;1.05;;
23390;SDS011;11868;45.606;5.302;2023-05-10T00:42:35;2.80;;;0.90;;
23390;SDS011;11868;45.606;5.302;2023-05-10T00:45:01;3.40;;;1.05;;
23390;SDS011;11868;45.606;5.302;2023-05-10T00:47:26;2.78;;;1.00;;
23390;SDS011;11868;45.606;5.302;2023-05-10T00:49:52;2.42;;;1.00;;
23390;SDS011;11868;45.606;5.302;2023-05-10T00:52:17;4.43;;;0.90;;
23390;SDS011;11868;45.606;5.302;2023-05-10T00:54:43;3.70;;;1.13;;
23390;SDS011;11868;45.606;5.302;2023-05-10T00:57:08;13.18;;;1.77;;
23390;SDS011;11868;45.606;5.302;2023-05-10T00:59:34;5.07;;;1.00;;
23390;SDS011;11868;45.606;5.302;2023-05-10T01:01:59;4.82;;;0.88;;
23390;SDS011;11868;45.606;5.302;2023-05-10T01:04:24;2.38;;;0.85;;
23390;SDS011;11868;45.606;5.302;2023-05-10T01:06:53;3.25;;;0.80;;
23390;SDS011;11868;45.606;5.302;2023-05-10T01:09:19;1.10;;;0.60;;
23390;SDS011;11868;45.606;5.302;2023-05-10T01:11:45;3.33;;;0.80;;
23390;SDS011;11868;45.606;5.302;2023-05-10T01:14:11;2.45;;;0.82;;
23390;SDS011;11868;45.606;5.302;2023-05-10T01:16:37;0.77;;;0.70;;
23390;SDS011;11868;45.606;5.302;2023-05-10T01:19:08;4.22;;;0.70;;
23390;SDS011;11868;45.606;5.302;2023-05-10T01:21:38;0.55;;;0.55;;
23390;SDS011;11868;45.606;5.302;2023-05-10T01:32:15;1.50;;;0.95;;
23390;SDS011;11868;45.606;5.302;2023-05-10T01:34:52;3.15;;;0.73;;
23390;SDS011;11868;45.606;5.302;2023-05-10T01:37:20;5.18;;;1.02;;
23390;SDS011;11868;45.606;5.302;2023-05-10T01:42:21;1.08;;;0.70;;
23390;SDS011;11868;45.606;5.302;2023-05-10T01:45:04;4.13;;;0.93;;
23390;SDS011;11868;45.606;5.302;2023-05-10T01:47:37;1.90;;;0.93;;
23390;SDS011;11868;45.606;5.302;2023-05-10T01:50:04;3.63;;;0.90;;
23390;SDS011;11868;45.606;5.302;2023-05-10T01:52:33;16.98;;;1.55;;
23390;SDS011;11868;45.606;5.302;2023-05-10T01:55:05;5.68;;;0.95;;
23390;SDS011;11868;45.606;5.302;2023-05-10T01:57:33;1.80;;;0.90;;
23390;SDS011;11868;45.606;5.302;2023-05-10T02:00:01;2.28;;;1.15;;
23390;SDS011;11868;45.606;5.302;2023-05-10T02:02:28;4.55;;;1.00;;
23390;SDS011;11868;45.606;5.302;2023-05-10T02:04:55;6.90;;;1.15;;
23390;SDS011;11868;45.606;5.302;2023-05-10T02:07:22;3.58;;;0.90;;
23390;SDS011;11868;45.606;5.302;2023-05-10T02:09:48;1.48;;;0.90;;
23390;SDS011;11868;45.606;5.302;2023-05-10T02:12:14;1.75;;;0.80;;
23390;SDS011;11868;45.606;5.302;2023-05-10T02:14:40;1.95;;;0.90;;
23390;SDS011;11868;45.606;5.302;2023-05-10T02:17:06;1.95;;;1.00;;
23390;SDS011;11868;45.606;5.302;2023-05-10T02:19:32;5.13;;;1.00;;
23390;SDS011;11868;45.606;5.302;2023-05-10T02:21:59;3.88;;;1.13;;
23390;SDS011;11868;45.606;5.302;2023-05-10T02:24:25;2.35;;;0.90;;
23390;SDS011;11868;45.606;5.302;2023-05-10T02:26:53;1.60;;;0.90;;
23390;SDS011;11868;45.606;5.302;2023-05-10T02:29:19;5.75;;;0.93;;
23390;SDS011;11868;45.606;5.302;2023-05-10T02:31:45;2.58;;;1.00;;
23390;SDS011;11868;45.606;5.302;2023-05-10T02:34:10;5.03;;;0.85;;
23390;SDS011;11868;45.606;5.302;2023-05-10T02:36:37;2.33;;;1.00;;
23390;SDS011;11868;45.606;5.302;2023-05-10T02:39:03;2.22;;;0.95;;
23390;SDS011;11868;45.606;5.302;2023-05-10T02:41:30;1.42;;;0.80;;
23390;SDS011;11868;45.606;5.302;2023-05-10T02:43:57;1.67;;;0.77;;
23390;SDS011;11868;45.606;5.302;2023-05-10T02:46:24;2.58;;;0.98;;
23390;SDS011;11868;45.606;5.302;2023-05-10T02:48:50;3.47;;;0.80;;
23390;SDS011;11868;45.606;5.302;2023-05-10T02:51:16;1.63;;;0.60;;
23390;SDS011;11868;45.606;5.302;2023-05-10T02:53:42;1.92;;;0.60;;
23390;SDS011;11868;45.606;5.302;2023-05-10T02:56:12;7.72;;;0.80;;
23390;SDS011;11868;45.606;5.302;2023-05-10T02:58:39;3.08;;;0.63;;
23390;SDS011;11868;45.606;5.302;2023-05-10T03:01:05;2.30;;;0.60;;
23390;SDS011;11868;45.606;5.302;2023-05-10T03:03:32;3.00;;;0.80;;
23390;SDS011;11868;45.606;5.302;2023-05-10T03:05:57;3.03;;;0.90;;
23390;SDS011;11868;45.606;5.302;2023-05-10T03:08:23;1.65;;;0.73;;
23390;SDS011;11868;45.606;5.302;2023-05-10T03:13:59;4.88;;;1.33;;
23390;SDS011;11868;45.606;5.302;2023-05-10T03:16:50;2.05;;;0.90;;
23390;SDS011;11868;45.606;5.302;2023-05-10T03:19:22;3.85;;;1.13;;
23390;SDS011;11868;45.606;5.302;2023-05-10T03:24:16;2.85;;;1.00;;
23390;SDS011;11868;45.606;5.302;2023-05-10T03:26:44;2.60;;;0.85;;
23390;SDS011;11868;45.606;5.302;2023-05-10T03:29:11;1.90;;;0.70;;
23390;SDS011;11868;45.606;5.302;2023-05-10T03:31:38;1.33;;;0.93;;
23390;SDS011;11868;45.606;5.302;2023-05-10T03:34:03;3.72;;;0.93;;
23390;SDS011;11868;45.606;5.302;2023-05-10T03:36:29;2.95;;;0.98;;
23390;SDS011;11868;45.606;5.302;2023-05-10T03:38:54;2.10;;;0.85;;
23390;SDS011;11868;45.606;5.302;2023-05-10T03:41:19;5.80;;;0.93;;
23390;SDS011;11868;45.606;5.302;2023-05-10T03:43:45;0.95;;;0.70;;
23390;SDS011;11868;45.606;5.302;2023-05-10T03:46:10;1.60;;;0.90;;
23390;SDS011;11868;45.606;5.302;2023-05-10T03:48:36;3.90;;;1.08;;
23390;SDS011;11868;45.606;5.302;2023-05-10T03:51:01;4.30;;;0.90;;
23390;SDS011;11868;45.606;5.302;2023-05-10T03:53:27;3.72;;;1.05;;
23390;SDS011;11868;45.606;5.302;2023-05-10T03:55:52;1.95;;;1.00;;
23390;SDS011;11868;45.606;5.302;2023-05-10T03:58:17;1.50;;;1.08;;
23390;SDS011;11868;45.606;5.302;2023-05-10T04:00:43;1.83;;;0.95;;
23390;SDS011;11868;45.606;5.302;2023-05-10T04:03:13;1.13;;;0.80;;
23390;SDS011;11868;45.606;5.302;2023-05-10T04:05:38;1.83;;;0.90;;
23390;SDS011;11868;45.606;5.302;2023-05-10T04:08:04;2.60;;;0.85;;
23390;SDS011;11868;45.606;5.302;2023-05-10T04:10:30;2.63;;;1.02;;
23390;SDS011;11868;45.606;5.302;2023-05-10T04:12:55;1.38;;;0.68;;
23390;SDS011;11868;45.606;5.302;2023-05-10T04:15:21;4.43;;;1.38;;
23390;SDS011;11868;45.606;5.302;2023-05-10T04:17:46;3.58;;;1.00;;
23390;SDS011;11868;45.606;5.302;2023-05-10T04:20:12;1.98;;;0.80;;
23390;SDS011;11868;45.606;5.302;2023-05-10T04:22:37;2.85;;;0.90;;
23390;SDS011;11868;45.606;5.302;2023-05-10T04:25:03;7.13;;;0.90;;
23390;SDS011;11868;45.606;5.302;2023-05-10T04:27:29;2.13;;;0.93;;
23390;SDS011;11868;45.606;5.302;2023-05-10T04:29:55;1.15;;;0.80;;
23390;SDS011;11868;45.606;5.302;2023-05-10T04:32:21;3.05;;;1.10;;
23390;SDS011;11868;45.606;5.302;2023-05-10T04:34:47;3.05;;;1.02;;
23390;SDS011;11868;45.606;5.302;2023-05-10T04:37:12;3.17;;;0.95;;
23390;SDS011;11868;45.606;5.302;2023-05-10T04:39:37;4.70;;;1.40;;
23390;SDS011;11868;45.606;5.302;2023-05-10T04:42:03;3.13;;;1.08;;
23390;SDS011;11868;45.606;5.302;2023-05-10T04:44:30;3.30;;;1.00;;
23390;SDS011;11868;45.606;5.302;2023-05-10T04:46:55;6.47;;;1.50;;
23390;SDS011;11868;45.606;5.302;2023-05-10T04:49:21;8.32;;;1.70;;
23390;SDS011;11868;45.606;5.302;2023-05-10T04:51:46;3.50;;;1.40;;
23390;SDS011;11868;45.606;5.302;2023-05-10T04:54:12;3.80;;;1.30;;
23390;SDS011;11868;45.606;5.302;2023-05-10T04:56:37;4.25;;;1.20;;
23390;SDS011;11868;45.606;5.302;2023-05-10T04:59:02;5.82;;;1.80;;
23390;SDS011;11868;45.606;5.302;2023-05-10T05:01:28;4.57;;;1.70;;
23390;SDS011;11868;45.606;5.302;2023-05-10T05:03:53;5.25;;;1.42;;
23390;SDS011;11868;45.606;5.302;2023-05-10T05:06:18;3.42;;;1.48;;
23390;SDS011;11868;45.606;5.302;2023-05-10T05:08:45;4.72;;;1.40;;
23390;SDS011;11868;45.606;5.302;2023-05-10T05:11:11;3.70;;;1.52;;
23390;SDS011;11868;45.606;5.302;2023-05-10T05:13:36;4.15;;;1.55;;
23390;SDS011;11868;45.606;5.302;2023-05-10T05:16:02;9.23;;;1.77;;
23390;SDS011;11868;45.606;5.302;2023-05-10T05:18:28;6.45;;;2.17;;
23390;SDS011;11868;45.606;5.302;2023-05-10T05:20:53;8.80;;;1.73;;
23390;SDS011;11868;45.606;5.302;2023-05-10T05:23:19;11.15;;;1.50;;
23390;SDS011;11868;45.606;5.302;2023-05-10T05:25:45;9.60;;;1.35;;
23390;SDS011;11868;45.606;5.302;2023-05-10T05:28:11;6.13;;;1.35;;
23390;SDS011;11868;45.606;5.302;2023-05-10T05:30:36;5.90;;;1.38;;
23390;SDS011;11868;45.606;5.302;2023-05-10T05:33:02;6.05;;;1.90;;
23390;SDS011;11868;45.606;5.302;2023-05-10T05:35:27;10.93;;;1.60;;
23390;SDS011;11868;45.606;5.302;2023-05-10T05:37:53;4.70;;;1.40;;
23390;SDS011;11868;45.606;5.302;2023-05-10T05:40:18;5.78;;;1.52;;
23390;SDS011;11868;45.606;5.302;2023-05-10T05:42:43;6.13;;;1.85;;
23390;SDS011;11868;45.606;5.302;2023-05-10T05:45:09;6.00;;;1.77;;
23390;SDS011;11868;45.606;5.302;2023-05-10T05:47:37;6.45;;;1.70;;
23390;SDS011;11868;45.606;5.302;2023-05-10T05:50:03;13.38;;;1.98;;
23390;SDS011;11868;45.606;5.302;2023-05-10T05:52:29;4.88;;;1.48;;
23390;SDS011;11868;45.606;5.302;2023-05-10T05:54:56;6.63;;;1.63;;
23390;SDS011;11868;45.606;5.302;2023-05-10T05:57:21;11.73;;;1.70;;
23390;SDS011;11868;45.606;5.302;2023-05-10T05:59:47;10.70;;;1.80;;
23390;SDS011;11868;45.606;5.302;2023-05-10T06:02:12;9.55;;;1.75;;
23390;SDS011;11868;45.606;5.302;2023-05-10T06:04:37;10.55;;;1.98;;
23390;SDS011;11868;45.606;5.302;2023-05-10T06:07:03;9.52;;;1.90;;
23390;SDS011;11868;45.606;5.302;2023-05-10T06:09:28;14.25;;;2.58;;
23390;SDS011;11868;45.606;5.302;2023-05-10T06:11:53;8.07;;;1.70;;
23390;SDS011;11868;45.606;5.302;2023-05-10T06:14:22;12.07;;;1.95;;
23390;SDS011;11868;45.606;5.302;2023-05-10T06:16:47;9.60;;;1.88;;
23390;SDS011;11868;45.606;5.302;2023-05-10T06:19:13;9.70;;;1.75;;
23390;SDS011;11868;45.606;5.302;2023-05-10T06:21:38;7.47;;;1.80;;
23390;SDS011;11868;45.606;5.302;2023-05-10T06:24:03;14.00;;;1.85;;
23390;SDS011;11868;45.606;5.302;2023-05-10T06:26:31;9.40;;;1.85;;
23390;SDS011;11868;45.606;5.302;2023-05-10T06:28:56;5.50;;;1.80;;
23390;SDS011;11868;45.606;5.302;2023-05-10T06:31:22;9.30;;;1.60;;
23390;SDS011;11868;45.606;5.302;2023-05-10T06:33:47;8.70;;;2.00;;
23390;SDS011;11868;45.606;5.302;2023-05-10T06:36:12;7.60;;;1.95;;
23390;SDS011;11868;45.606;5.302;2023-05-10T06:38:38;8.02;;;1.73;;
23390;SDS011;11868;45.606;5.302;2023-05-10T06:41:03;8.88;;;2.00;;
23390;SDS011;11868;45.606;5.302;2023-05-10T06:43:29;6.25;;;1.80;;
23390;SDS011;11868;45.606;5.302;2023-05-10T06:45:54;8.88;;;1.80;;
23390;SDS011;11868;45.606;5.302;2023-05-10T06:48:20;12.23;;;2.33;;
23390;SDS011;11868;45.606;5.302;2023-05-10T06:50:45;10.70;;;1.73;;
23390;SDS011;11868;45.606;5.302;2023-05-10T06:53:10;11.70;;;2.03;;
23390;SDS011;11868;45.606;5.302;2023-05-10T06:55:37;8.05;;;2.20;;
23390;SDS011;11868;45.606;5.302;2023-05-10T06:58:02;9.63;;;1.75;;
23390;SDS011;11868;45.606;5.302;2023-05-10T07:00:27;9.65;;;2.17;;
23390;SDS011;11868;45.606;5.302;2023-05-10T07:02:52;7.68;;;1.92;;
23390;SDS011;11868;45.606;5.302;2023-05-10T07:05:18;11.30;;;2.40;;
23390;SDS011;11868;45.606;5.302;2023-05-10T07:07:43;9.60;;;1.80;;
23390;SDS011;11868;45.606;5.302;2023-05-10T07:10:09;11.77;;;1.83;;
23390;SDS011;11868;45.606;5.302;2023-05-10T07:12:34;10.43;;;2.17;;
23390;SDS011;11868;45.606;5.302;2023-05-10T07:15:00;11.23;;;1.88;;
23390;SDS011;11868;45.606;5.302;2023-05-10T07:17:25;11.65;;;1.98;;
23390;SDS011;11868;45.606;5.302;2023-05-10T07:19:50;10.15;;;2.50;;
23390;SDS011;11868;45.606;5.302;2023-05-10T07:22:16;5.78;;;2.13;;
23390;SDS011;11868;45.606;5.302;2023-05-10T07:24:41;8.50;;;2.00;;
23390;SDS011;11868;45.606;5.302;2023-05-10T07:27:07;9.32;;;1.98;;
23390;SDS011;11868;45.606;5.302;2023-05-10T07:29:32;8.73;;;1.83;;
23390;SDS011;11868;45.606;5.302;2023-05-10T07:31:58;14.57;;;1.90;;
23390;SDS011;11868;45.606;5.302;2023-05-10T07:34:23;17.80;;;2.17;;
23390;SDS011;11868;45.606;5.302;2023-05-10T07:36:49;9.73;;;1.92;;
23390;SDS011;11868;45.606;5.302;2023-05-10T07:39:14;9.10;;;1.70;;
23390;SDS011;11868;45.606;5.302;2023-05-10T07:41:39;6.63;;;1.98;;
23390;SDS011;11868;45.606;5.302;2023-05-10T07:44:05;7.15;;;2.03;;
23390;SDS011;11868;45.606;5.302;2023-05-10T07:46:31;8.68;;;1.98;;
23390;SDS011;11868;45.606;5.302;2023-05-10T07:48:56;19.15;;;2.72;;
23390;SDS011;11868;45.606;5.302;2023-05-10T07:51:21;11.57;;;2.10;;
23390;SDS011;11868;45.606;5.302;2023-05-10T07:53:47;14.07;;;2.25;;
23390;SDS011;11868;45.606;5.302;2023-05-10T07:56:28;7.45;;;1.67;;
23390;SDS011;11868;45.606;5.302;2023-05-10T07:58:58;9.75;;;1.58;;
23390;SDS011;11868;45.606;5.302;2023-05-10T08:01:24;9.77;;;2.28;;
23390;SDS011;11868;45.606;5.302;2023-05-10T08:03:50;9.00;;;2.10;;
23390;SDS011;11868;45.606;5.302;2023-05-10T08:06:17;8.68;;;2.38;;
23390;SDS011;11868;45.606;5.302;2023-05-10T08:08:43;6.97;;;1.60;;
23390;SDS011;11868;45.606;5.302;2023-05-10T08:11:10;8.98;;;1.92;;
23390;SDS011;11868;45.606;5.302;2023-05-10T08:13:35;6.72;;;1.60;;
23390;SDS011;11868;45.606;5.302;2023-05-10T08:16:01;8.80;;;1.80;;
23390;SDS011;11868;45.606;5.302;2023-05-10T08:18:26;5.43;;;1.40;;
23390;SDS011;11868;45.606;5.302;2023-05-10T08:20:51;11.40;;;1.83;;
23390;SDS011;11868;45.606;5.302;2023-05-10T08:23:17;7.70;;;1.50;;
23390;SDS011;11868;45.606;5.302;2023-05-10T08:25:42;9.20;;;1.70;;
23390;SDS011;11868;45.606;5.302;2023-05-10T08:28:07;6.53;;;1.73;;
23390;SDS011;11868;45.606;5.302;2023-05-10T08:30:33;8.57;;;2.40;;
23390;SDS011;11868;45.606;5.302;2023-05-10T08:32:58;10.98;;;1.88;;
23390;SDS011;11868;45.606;5.302;2023-05-10T08:35:23;11.10;;;2.00;;
23390;SDS011;11868;45.606;5.302;2023-05-10T08:37:50;9.38;;;2.13;;
23390;SDS011;11868;45.606;5.302;2023-05-10T08:40:15;6.68;;;1.55;;
23390;SDS011;11868;45.606;5.302;2023-05-10T08:42:43;10.48;;;1.60;;
23390;SDS011;11868;45.606;5.302;2023-05-10T08:45:16;7.35;;;1.80;;
23390;SDS011;11868;45.606;5.302;2023-05-10T08:47:42;7.32;;;1.58;;
23390;SDS011;11868;45.606;5.302;2023-05-10T08:50:07;12.13;;;2.08;;
23390;SDS011;11868;45.606;5.302;2023-05-10T08:52:33;9.80;;;1.95;;
23390;SDS011;11868;45.606;5.302;2023-05-10T08:55:03;8.23;;;1.73;;
23390;SDS011;11868;45.606;5.302;2023-05-10T08:57:29;7.13;;;1.55;;
23390;SDS011;11868;45.606;5.302;2023-05-10T08:59:55;9.35;;;2.10;;
23390;SDS011;11868;45.606;5.302;2023-05-10T09:02:20;12.52;;;1.90;;
23390;SDS011;11868;45.606;5.302;2023-05-10T09:04:46;5.55;;;1.42;;
23390;SDS011;11868;45.606;5.302;2023-05-10T09:07:11;7.07;;;1.92;;
23390;SDS011;11868;45.606;5.302;2023-05-10T09:09:37;13.50;;;1.65;;
23390;SDS011;11868;45.606;5.302;2023-05-10T09:12:03;6.22;;;1.60;;
23390;SDS011;11868;45.606;5.302;2023-05-10T09:14:28;11.30;;;1.95;;
23390;SDS011;11868;45.606;5.302;2023-05-10T09:16:54;5.60;;;1.38;;
23390;SDS011;11868;45.606;5.302;2023-05-10T09:19:20;9.60;;;2.00;;
23390;SDS011;11868;45.606;5.302;2023-05-10T09:21:45;4.38;;;1.27;;
23390;SDS011;11868;45.606;5.302;2023-05-10T09:24:11;11.48;;;2.03;;
23390;SDS011;11868;45.606;5.302;2023-05-10T09:26:45;6.82;;;1.83;;
23390;SDS011;11868;45.606;5.302;2023-05-10T09:29:13;7.13;;;1.95;;
23390;SDS011;11868;45.606;5.302;2023-05-10T09:31:49;9.02;;;2.20;;
23390;SDS011;11868;45.606;5.302;2023-05-10T09:34:30;5.78;;;1.92;;
23390;SDS011;11868;45.606;5.302;2023-05-10T09:36:58;7.68;;;1.90;;
23390;SDS011;11868;45.606;5.302;2023-05-10T09:39:38;5.88;;;1.63;;
23390;SDS011;11868;45.606;5.302;2023-05-10T09:42:04;7.68;;;1.67;;
23390;SDS011;11868;45.606;5.302;2023-05-10T09:44:34;6.80;;;1.88;;
23390;SDS011;11868;45.606;5.302;2023-05-10T09:47:00;4.97;;;1.52;;
23390;SDS011;11868;45.606;5.302;2023-05-10T09:49:26;5.47;;;1.67;;
23390;SDS011;11868;45.606;5.302;2023-05-10T09:52:05;6.97;;;1.63;;
23390;SDS011;11868;45.606;5.302;2023-05-10T09:54:31;8.63;;;1.45;;
23390;SDS011;11868;45.606;5.302;2023-05-10T09:56:57;16.73;;;2.15;;
23390;SDS011;11868;45.606;5.302;2023-05-10T09:59:24;5.60;;;1.52;;
23390;SDS011;11868;45.606;5.302;2023-05-10T10:01:51;10.57;;;1.80;;
23390;SDS011;11868;45.606;5.302;2023-05-10T10:04:16;7.35;;;1.75;;
23390;SDS011;11868;45.606;5.302;2023-05-10T10:06:42;8.55;;;1.67;;
23390;SDS011;11868;45.606;5.302;2023-05-10T10:09:08;7.30;;;1.50;;
23390;SDS011;11868;45.606;5.302;2023-05-10T10:11:34;8.60;;;2.08;;
23390;SDS011;11868;45.606;5.302;2023-05-10T10:14:00;9.48;;;2.10;;
23390;SDS011;11868;45.606;5.302;2023-05-10T10:16:26;7.10;;;1.48;;
23390;SDS011;11868;45.606;5.302;2023-05-10T10:18:53;6.55;;;1.98;;
23390;SDS011;11868;45.606;5.302;2023-05-10T10:21:18;5.97;;;1.80;;
23390;SDS011;11868;45.606;5.302;2023-05-10T10:23:44;9.90;;;1.58;;
23390;SDS011;11868;45.606;5.302;2023-05-10T10:26:11;16.85;;;1.98;;
23390;SDS011;11868;45.606;5.302;2023-05-10T10:31:57;8.32;;;1.73;;
23390;SDS011;11868;45.606;5.302;2023-05-10T10:34:38;6.22;;;1.40;;
23390;SDS011;11868;45.606;5.302;2023-05-10T10:37:04;7.70;;;1.80;;
23390;SDS011;11868;45.606;5.302;2023-05-10T10:39:30;7.20;;;1.90;;
23390;SDS011;11868;45.606;5.302;2023-05-10T10:41:56;7.00;;;1.88;;
23390;SDS011;11868;45.606;5.302;2023-05-10T10:44:23;7.05;;;2.00;;
23390;SDS011;11868;45.606;5.302;2023-05-10T10:47:22;6.68;;;1.85;;
23390;SDS011;11868;45.606;5.302;2023-05-10T10:52:38;9.05;;;2.03;;
23390;SDS011;11868;45.606;5.302;2023-05-10T10:55:13;10.50;;;1.65;;
23390;SDS011;11868;45.606;5.302;2023-05-10T10:57:55;8.50;;;1.95;;
23390;SDS011;11868;45.606;5.302;2023-05-10T11:00:29;10.70;;;2.63;;
23390;SDS011;11868;45.606;5.302;2023-05-10T11:02:56;6.15;;;1.83;;
23390;SDS011;11868;45.606;5.302;2023-05-10T11:07:58;10.45;;;1.90;;
23390;SDS011;11868;45.606;5.302;2023-05-10T11:10:25;7.82;;;1.65;;
23390;SDS011;11868;45.606;5.302;2023-05-10T11:13:01;6.50;;;1.38;;
23390;SDS011;11868;45.606;5.302;2023-05-10T11:18:16;9.05;;;2.10;;
23390;SDS011;11868;45.606;5.302;2023-05-10T11:20:41;6.75;;;1.95;;
23390;SDS011;11868;45.606;5.302;2023-05-10T11:23:13;8.50;;;1.50;;
23390;SDS011;11868;45.606;5.302;2023-05-10T11:25:44;8.63;;;1.52;;
23390;SDS011;11868;45.606;5.302;2023-05-10T11:28:11;6.20;;;1.70;;
23390;SDS011;11868;45.606;5.302;2023-05-10T11:30:40;5.78;;;1.55;;
23390;SDS011;11868;45.606;5.302;2023-05-10T11:33:08;9.80;;;1.70;;
23390;SDS011;11868;45.606;5.302;2023-05-10T11:35:38;7.10;;;1.45;;
23390;SDS011;11868;45.606;5.302;2023-05-10T11:38:07;5.25;;;1.50;;
23390;SDS011;11868;45.606;5.302;2023-05-10T11:40:33;8.18;;;1.73;;
23390;SDS011;11868;45.606;5.302;2023-05-10T11:42:59;6.85;;;1.50;;
23390;SDS011;11868;45.606;5.302;2023-05-10T11:45:24;9.50;;;1.90;;
23390;SDS011;11868;45.606;5.302;2023-05-10T11:47:50;9.68;;;1.73;;
23390;SDS011;11868;45.606;5.302;2023-05-10T11:50:17;6.18;;;1.30;;
23390;SDS011;11868;45.606;5.302;2023-05-10T11:52:42;11.00;;;1.75;;
23390;SDS011;11868;45.606;5.302;2023-05-10T11:55:08;4.28;;;1.30;;
23390;SDS011;11868;45.606;5.302;2023-05-10T11:57:33;8.35;;;1.42;;
23390;SDS011;11868;45.606;5.302;2023-05-10T12:00:00;7.13;;;1.80;;
23390;SDS011;11868;45.606;5.302;2023-05-10T12:02:25;6.55;;;1.42;;
23390;SDS011;11868;45.606;5.302;2023-05-10T12:04:50;7.38;;;1.60;;
23390;SDS011;11868;45.606;5.302;2023-05-10T12:07:16;13.73;;;1.80;;
23390;SDS011;11868;45.606;5.302;2023-05-10T12:09:43;10.23;;;1.77;;
23390;SDS011;11868;45.606;5.302;2023-05-10T12:12:09;8.25;;;1.80;;
23390;SDS011;11868;45.606;5.302;2023-05-10T12:14:35;5.65;;;1.73;;
23390;SDS011;11868;45.606;5.302;2023-05-10T12:17:00;6.68;;;1.58;;
23390;SDS011;11868;45.606;5.302;2023-05-10T12:19:25;6.95;;;2.30;;
23390;SDS011;11868;45.606;5.302;2023-05-10T12:21:51;9.18;;;1.60;;
23390;SDS011;11868;45.606;5.302;2023-05-10T12:24:16;7.47;;;1.50;;
23390;SDS011;11868;45.606;5.302;2023-05-10T12:26:43;9.10;;;1.63;;
23390;SDS011;11868;45.606;5.302;2023-05-10T12:29:14;8.60;;;1.52;;
23390;SDS011;11868;45.606;5.302;2023-05-10T12:31:56;7.00;;;1.67;;
23390;SDS011;11868;45.606;5.302;2023-05-10T12:34:26;5.15;;;1.42;;
23390;SDS011;11868;45.606;5.302;2023-05-10T12:36:55;8.18;;;1.50;;
23390;SDS011;11868;45.606;5.302;2023-05-10T12:39:20;5.05;;;1.30;;
23390;SDS011;11868;45.606;5.302;2023-05-10T12:41:46;8.15;;;1.55;;
23390;SDS011;11868;45.606;5.302;2023-05-10T12:44:11;7.53;;;1.48;;
23390;SDS011;11868;45.606;5.302;2023-05-10T12:46:37;6.35;;;1.55;;
23390;SDS011;11868;45.606;5.302;2023-05-10T12:49:02;7.57;;;1.60;;
23390;SDS011;11868;45.606;5.302;2023-05-10T12:51:27;6.90;;;2.17;;
23390;SDS011;11868;45.606;5.302;2023-05-10T12:53:53;8.10;;;1.58;;
23390;SDS011;11868;45.606;5.302;2023-05-10T12:56:19;5.65;;;1.30;;
23390;SDS011;11868;45.606;5.302;2023-05-10T12:58:45;10.20;;;1.58;;
23390;SDS011;11868;45.606;5.302;2023-05-10T13:01:13;6.38;;;1.30;;
23390;SDS011;11868;45.606;5.302;2023-05-10T13:03:41;7.05;;;1.40;;
23390;SDS011;11868;45.606;5.302;2023-05-10T13:06:08;4.88;;;1.60;;
23390;SDS011;11868;45.606;5.302;2023-05-10T13:08:33;5.85;;;1.45;;
23390;SDS011;11868;45.606;5.302;2023-05-10T13:10:59;7.32;;;1.40;;
23390;SDS011;11868;45.606;5.302;2023-05-10T13:13:25;7.78;;;1.60;;
23390;SDS011;11868;45.606;5.302;2023-05-10T13:15:51;5.90;;;1.20;;
23390;SDS011;11868;45.606;5.302;2023-05-10T13:18:16;8.63;;;1.77;;
23390;SDS011;11868;45.606;5.302;2023-05-10T13:20:41;5.95;;;1.60;;
23390;SDS011;11868;45.606;5.302;2023-05-10T13:23:09;8.43;;;1.55;;
23390;SDS011;11868;45.606;5.302;2023-05-10T13:25:34;10.80;;;1.40;;
23390;SDS011;11868;45.606;5.302;2023-05-10T13:28:00;7.45;;;1.50;;
23390;SDS011;11868;45.606;5.302;2023-05-10T13:30:25;10.45;;;1.50;;
23390;SDS011;11868;45.606;5.302;2023-05-10T13:32:51;5.20;;;1.83;;
23390;SDS011;11868;45.606;5.302;2023-05-10T13:35:16;7.68;;;1.58;;
23390;SDS011;11868;45.606;5.302;2023-05-10T13:37:41;7.20;;;1.40;;
23390;SDS011;11868;45.606;5.302;2023-05-10T13:40:07;6.80;;;1.63;;
23390;SDS011;11868;45.606;5.302;2023-05-10T13:42:33;7.25;;;1.75;;
23390;SDS011;11868;45.606;5.302;2023-05-10T13:44:58;7.25;;;1.50;;
23390;SDS011;11868;45.606;5.302;2023-05-10T13:47:25;5.03;;;1.60;;
23390;SDS011;11868;45.606;5.302;2023-05-10T13:49:51;7.50;;;1.45;;
23390;SDS011;11868;45.606;5.302;2023-05-10T13:52:16;9.85;;;1.70;;
23390;SDS011;11868;45.606;5.302;2023-05-10T13:54:42;9.63;;;1.98;;
23390;SDS011;11868;45.606;5.302;2023-05-10T13:57:07;5.68;;;1.40;;
23390;SDS011;11868;45.606;5.302;2023-05-10T13:59:33;9.05;;;1.48;;
23390;SDS011;11868;45.606;5.302;2023-05-10T14:01:58;11.70;;;2.00;;
23390;SDS011;11868;45.606;5.302;2023-05-10T14:04:24;10.60;;;1.73;;
23390;SDS011;11868;45.606;5.302;2023-05-10T14:06:49;4.85;;;1.65;;
23390;SDS011;11868;45.606;5.302;2023-05-10T14:09:15;5.57;;;1.50;;
23390;SDS011;11868;45.606;5.302;2023-05-10T14:11:40;5.00;;;1.35;;
23390;SDS011;11868;45.606;5.302;2023-05-10T14:14:08;7.32;;;1.30;;
23390;SDS011;11868;45.606;5.302;2023-05-10T14:16:34;4.40;;;1.52;;
23390;SDS011;11868;45.606;5.302;2023-05-10T14:18:59;7.22;;;1.40;;
23390;SDS011;11868;45.606;5.302;2023-05-10T14:21:24;4.60;;;1.52;;
23390;SDS011;11868;45.606;5.302;2023-05-10T14:23:50;7.97;;;1.52;;
23390;SDS011;11868;45.606;5.302;2023-05-10T14:26:15;5.25;;;0.98;;
23390;SDS011;11868;45.606;5.302;2023-05-10T14:28:41;9.15;;;2.20;;
23390;SDS011;11868;45.606;5.302;2023-05-10T14:31:06;5.85;;;1.42;;
23390;SDS011;11868;45.606;5.302;2023-05-10T14:33:31;6.55;;;1.63;;
23390;SDS011;11868;45.606;5.302;2023-05-10T14:35:57;6.00;;;1.48;;
23390;SDS011;11868;45.606;5.302;2023-05-10T14:38:22;9.10;;;1.70;;
23390;SDS011;11868;45.606;5.302;2023-05-10T14:40:48;4.45;;;1.33;;
23390;SDS011;11868;45.606;5.302;2023-05-10T14:43:14;7.53;;;1.50;;
23390;SDS011;11868;45.606;5.302;2023-05-10T14:45:39;10.18;;;1.77;;
23390;SDS011;11868;45.606;5.302;2023-05-10T14:48:05;5.50;;;1.60;;
23390;SDS011;11868;45.606;5.302;2023-05-10T14:50:30;7.78;;;1.70;;
23390;SDS011;11868;45.606;5.302;2023-05-10T14:52:56;3.08;;;1.38;;
23390;SDS011;11868;45.606;5.302;2023-05-10T14:55:23;9.90;;;1.58;;
23390;SDS011;11868;45.606;5.302;2023-05-10T14:57:48;13.05;;;1.42;;
23390;SDS011;11868;45.606;5.302;2023-05-10T15:00:15;6.35;;;1.25;;
23390;SDS011;11868;45.606;5.302;2023-05-10T15:02:41;4.80;;;1.67;;
23390;SDS011;11868;45.606;5.302;2023-05-10T15:05:06;3.85;;;1.30;;
23390;SDS011;11868;45.606;5.302;2023-05-10T15:07:32;6.15;;;1.60;;
23390;SDS011;11868;45.606;5.302;2023-05-10T15:09:57;9.77;;;1.42;;